sensor_id;sensor_type;location;lat;lon;timestamp;P1;durP1;ratioP1;P2;durP2;ratioP2
34924;SDS011;21130;51.728;8.748;2024-03-02T00:00:49;11.57;;;10.30;;
34924;SDS011;21130;51.728;8.748;2024-03-02T00:03:16;11.73;;;10.52;;
34924;SDS011;21130;51.728;8.748;2024-03-02T00:05:43;11.93;;;10.63;;
34924;SDS011;21130;51.728;8.748;2024-03-02T00:08:10;12.05;;;10.35;;
34924;SDS011;21130;51.728;8.748;2024-03-02T00:10:38;11.80;;;10.60;;
34924;SDS011;21130;51.728;8.748;2024-03-02T00:13:05;11.68;;;10.48;;
34924;SDS011;21130;51.728;8.748;2024-03-02T00:18:18;12.05;;;10.35;;
34924;SDS011;21130;51.728;8.748;2024-03-02T00:20:46;11.43;;;10.23;;
34924;SDS011;21130;51.728;8.748;2024-03-02T00:23:14;12.80;;;10.85;;
34924;SDS011;21130;51.728;8.748;2024-03-02T00:25:43;13.30;;;10.65;;
34924;SDS011;21130;51.728;8.748;2024-03-02T00:28:11;12.90;;;10.90;;
34924;SDS011;21130;51.728;8.748;2024-03-02T00:33:30;12.98;;;10.85;;
34924;SDS011;21130;51.728;8.748;2024-03-02T00:35:58;12.18;;;10.85;;
34924;SDS011;21130;51.728;8.748;2024-03-02T00:38:25;12.90;;;11.43;;
34924;SDS011;21130;51.728;8.748;2024-03-02T00:40:54;12.25;;;10.98;;
34924;SDS011;21130;51.728;8.748;2024-03-02T00:46:11;13.38;;;11.30;;
34924;SDS011;21130;51.728;8.748;2024-03-02T00:48:39;13.75;;;11.63;;
34924;SDS011;21130;51.728;8.748;2024-03-02T00:51:13;12.18;;;10.52;;
34924;SDS011;21130;51.728;8.748;2024-03-02T00:53:39;11.48;;;10.27;;
34924;SDS011;21130;51.728;8.748;2024-03-02T00:56:08;12.52;;;11.23;;
34924;SDS011;21130;51.728;8.748;2024-03-02T00:58:36;12.35;;;11.02;;
34924;SDS011;21130;51.728;8.748;2024-03-02T01:01:03;12.63;;;11.32;;
34924;SDS011;21130;51.728;8.748;2024-03-02T01:03:29;11.85;;;10.68;;
34924;SDS011;21130;51.728;8.748;2024-03-02T01:05:57;11.00;;;9.85;;
34924;SDS011;21130;51.728;8.748;2024-03-02T01:08:23;13.52;;;10.95;;
34924;SDS011;21130;51.728;8.748;2024-03-02T01:10:50;12.70;;;11.40;;
34924;SDS011;21130;51.728;8.748;2024-03-02T01:13:18;12.02;;;10.82;;
34924;SDS011;21130;51.728;8.748;2024-03-02T01:15:44;13.00;;;10.90;;
34924;SDS011;21130;51.728;8.748;2024-03-02T01:18:10;12.57;;;11.27;;
34924;SDS011;21130;51.728;8.748;2024-03-02T01:20:37;12.70;;;11.43;;
34924;SDS011;21130;51.728;8.748;2024-03-02T01:23:03;12.57;;;11.27;;
34924;SDS011;21130;51.728;8.748;2024-03-02T01:25:30;12.50;;;11.20;;
34924;SDS011;21130;51.728;8.748;2024-03-02T01:27:56;13.25;;;11.85;;
34924;SDS011;21130;51.728;8.748;2024-03-02T01:30:24;12.45;;;11.15;;
34924;SDS011;21130;51.728;8.748;2024-03-02T01:32:51;13.40;;;11.82;;
34924;SDS011;21130;51.728;8.748;2024-03-02T01:35:17;12.95;;;11.63;;
34924;SDS011;21130;51.728;8.748;2024-03-02T01:37:43;13.98;;;12.57;;
34924;SDS011;21130;51.728;8.748;2024-03-02T01:40:10;14.23;;;12.70;;
34924;SDS011;21130;51.728;8.748;2024-03-02T01:42:37;13.43;;;11.95;;
34924;SDS011;21130;51.728;8.748;2024-03-02T01:45:05;12.75;;;11.45;;
34924;SDS011;21130;51.728;8.748;2024-03-02T01:47:34;13.82;;;12.38;;
34924;SDS011;21130;51.728;8.748;2024-03-02T01:50:01;13.38;;;11.98;;
34924;SDS011;21130;51.728;8.748;2024-03-02T01:52:27;14.75;;;13.18;;
34924;SDS011;21130;51.728;8.748;2024-03-02T01:54:54;14.05;;;12.63;;
34924;SDS011;21130;51.728;8.748;2024-03-02T01:57:21;13.82;;;12.32;;
34924;SDS011;21130;51.728;8.748;2024-03-02T01:59:47;13.85;;;12.45;;
34924;SDS011;21130;51.728;8.748;2024-03-02T02:02:15;15.35;;;13.40;;
34924;SDS011;21130;51.728;8.748;2024-03-02T02:04:43;14.90;;;13.15;;
34924;SDS011;21130;51.728;8.748;2024-03-02T02:07:09;16.25;;;13.50;;
34924;SDS011;21130;51.728;8.748;2024-03-02T02:09:36;15.63;;;13.88;;
34924;SDS011;21130;51.728;8.748;2024-03-02T02:12:03;16.00;;;13.65;;
34924;SDS011;21130;51.728;8.748;2024-03-02T02:14:31;15.10;;;13.57;;
34924;SDS011;21130;51.728;8.748;2024-03-02T02:16:58;14.25;;;12.75;;
34924;SDS011;21130;51.728;8.748;2024-03-02T02:19:24;14.73;;;13.23;;
34924;SDS011;21130;51.728;8.748;2024-03-02T02:21:52;14.27;;;12.75;;
34924;SDS011;21130;51.728;8.748;2024-03-02T02:24:18;17.08;;;14.77;;
34924;SDS011;21130;51.728;8.748;2024-03-02T02:26:45;17.25;;;14.73;;
34924;SDS011;21130;51.728;8.748;2024-03-02T02:29:11;15.63;;;14.00;;
34924;SDS011;21130;51.728;8.748;2024-03-02T02:31:38;17.48;;;14.93;;
34924;SDS011;21130;51.728;8.748;2024-03-02T02:34:05;16.85;;;15.05;;
34924;SDS011;21130;51.728;8.748;2024-03-02T02:36:32;16.48;;;14.35;;
34924;SDS011;21130;51.728;8.748;2024-03-02T02:39:02;17.02;;;15.20;;
34924;SDS011;21130;51.728;8.748;2024-03-02T02:41:30;16.48;;;14.23;;
34924;SDS011;21130;51.728;8.748;2024-03-02T02:43:56;16.85;;;15.05;;
34924;SDS011;21130;51.728;8.748;2024-03-02T02:46:23;17.20;;;15.38;;
34924;SDS011;21130;51.728;8.748;2024-03-02T02:48:57;17.86;;;15.26;;
34924;SDS011;21130;51.728;8.748;2024-03-02T02:51:24;19.13;;;15.82;;
34924;SDS011;21130;51.728;8.748;2024-03-02T02:53:51;18.63;;;16.35;;
34924;SDS011;21130;51.728;8.748;2024-03-02T02:56:19;17.88;;;16.00;;
34924;SDS011;21130;51.728;8.748;2024-03-02T02:58:46;19.27;;;17.25;;
34924;SDS011;21130;51.728;8.748;2024-03-02T03:01:12;22.60;;;17.25;;
34924;SDS011;21130;51.728;8.748;2024-03-02T03:03:39;20.25;;;17.08;;
34924;SDS011;21130;51.728;8.748;2024-03-02T03:06:05;20.98;;;17.90;;
34924;SDS011;21130;51.728;8.748;2024-03-02T03:08:32;19.88;;;17.08;;
34924;SDS011;21130;51.728;8.748;2024-03-02T03:10:59;20.90;;;17.33;;
34924;SDS011;21130;51.728;8.748;2024-03-02T03:13:27;22.13;;;17.58;;
34924;SDS011;21130;51.728;8.748;2024-03-02T03:15:53;21.77;;;18.25;;
34924;SDS011;21130;51.728;8.748;2024-03-02T03:18:20;21.63;;;18.63;;
34924;SDS011;21130;51.728;8.748;2024-03-02T03:20:46;20.60;;;17.70;;
34924;SDS011;21130;51.728;8.748;2024-03-02T03:23:13;22.80;;;18.38;;
34924;SDS011;21130;51.728;8.748;2024-03-02T03:25:41;22.30;;;18.67;;
34924;SDS011;21130;51.728;8.748;2024-03-02T03:28:07;23.08;;;19.08;;
34924;SDS011;21130;51.728;8.748;2024-03-02T03:30:36;20.88;;;18.27;;
34924;SDS011;21130;51.728;8.748;2024-03-02T03:33:02;22.90;;;19.13;;
34924;SDS011;21130;51.728;8.748;2024-03-02T03:35:29;22.10;;;18.55;;
34924;SDS011;21130;51.728;8.748;2024-03-02T03:37:56;22.27;;;19.15;;
34924;SDS011;21130;51.728;8.748;2024-03-02T03:40:22;23.38;;;19.10;;
34924;SDS011;21130;51.728;8.748;2024-03-02T03:42:48;21.02;;;18.45;;
34924;SDS011;21130;51.728;8.748;2024-03-02T03:45:15;22.02;;;18.73;;
34924;SDS011;21130;51.728;8.748;2024-03-02T03:47:43;22.88;;;18.95;;
34924;SDS011;21130;51.728;8.748;2024-03-02T03:50:10;23.40;;;18.83;;
34924;SDS011;21130;51.728;8.748;2024-03-02T03:52:37;22.45;;;18.65;;
34924;SDS011;21130;51.728;8.748;2024-03-02T03:55:04;22.25;;;18.85;;
34924;SDS011;21130;51.728;8.748;2024-03-02T03:57:31;21.60;;;18.17;;
34924;SDS011;21130;51.728;8.748;2024-03-02T03:59:58;22.20;;;18.95;;
34924;SDS011;21130;51.728;8.748;2024-03-02T04:02:25;21.85;;;17.63;;
34924;SDS011;21130;51.728;8.748;2024-03-02T04:04:53;21.67;;;18.27;;
34924;SDS011;21130;51.728;8.748;2024-03-02T04:07:19;22.08;;;19.23;;
34924;SDS011;21130;51.728;8.748;2024-03-02T04:09:46;21.83;;;17.73;;
34924;SDS011;21130;51.728;8.748;2024-03-02T04:12:12;21.73;;;18.10;;
34924;SDS011;21130;51.728;8.748;2024-03-02T04:14:39;20.90;;;17.48;;
34924;SDS011;21130;51.728;8.748;2024-03-02T04:17:07;22.23;;;17.63;;
34924;SDS011;21130;51.728;8.748;2024-03-02T04:19:34;21.05;;;17.52;;
34924;SDS011;21130;51.728;8.748;2024-03-02T04:22:02;20.05;;;17.73;;
34924;SDS011;21130;51.728;8.748;2024-03-02T04:24:29;20.48;;;17.40;;
34924;SDS011;21130;51.728;8.748;2024-03-02T04:26:55;23.92;;;17.60;;
34924;SDS011;21130;51.728;8.748;2024-03-02T04:44:50;21.95;;;17.25;;
34924;SDS011;21130;51.728;8.748;2024-03-02T04:47:16;22.58;;;17.65;;
34924;SDS011;21130;51.728;8.748;2024-03-02T04:49:44;23.52;;;18.00;;
34924;SDS011;21130;51.728;8.748;2024-03-02T04:52:11;24.23;;;18.75;;
34924;SDS011;21130;51.728;8.748;2024-03-02T04:54:37;22.65;;;18.02;;
34924;SDS011;21130;51.728;8.748;2024-03-02T04:57:34;23.13;;;17.85;;
34924;SDS011;21130;51.728;8.748;2024-03-02T05:00:00;22.70;;;17.92;;
34924;SDS011;21130;51.728;8.748;2024-03-02T05:02:31;24.50;;;19.15;;
34924;SDS011;21130;51.728;8.748;2024-03-02T05:04:58;20.98;;;16.98;;
34924;SDS011;21130;51.728;8.748;2024-03-02T05:07:26;22.80;;;17.92;;
34924;SDS011;21130;51.728;8.748;2024-03-02T05:09:52;25.20;;;18.70;;
34924;SDS011;21130;51.728;8.748;2024-03-02T05:12:18;20.67;;;17.67;;
34924;SDS011;21130;51.728;8.748;2024-03-02T05:15:22;23.90;;;18.52;;
34924;SDS011;21130;51.728;8.748;2024-03-02T05:17:48;25.30;;;18.17;;
34924;SDS011;21130;51.728;8.748;2024-03-02T05:20:14;23.00;;;18.50;;
34924;SDS011;21130;51.728;8.748;2024-03-02T05:22:42;22.38;;;18.48;;
34924;SDS011;21130;51.728;8.748;2024-03-02T05:25:08;21.95;;;18.23;;
34924;SDS011;21130;51.728;8.748;2024-03-02T05:27:35;24.10;;;19.10;;
34924;SDS011;21130;51.728;8.748;2024-03-02T05:30:02;22.13;;;17.98;;
34924;SDS011;21130;51.728;8.748;2024-03-02T05:32:32;23.85;;;18.88;;
34924;SDS011;21130;51.728;8.748;2024-03-02T05:34:59;22.42;;;19.40;;
34924;SDS011;21130;51.728;8.748;2024-03-02T05:37:25;21.17;;;18.30;;
34924;SDS011;21130;51.728;8.748;2024-03-02T05:39:52;24.75;;;18.63;;
34924;SDS011;21130;51.728;8.748;2024-03-02T05:42:18;25.17;;;19.15;;
34924;SDS011;21130;51.728;8.748;2024-03-02T05:44:45;25.90;;;19.35;;
34924;SDS011;21130;51.728;8.748;2024-03-02T05:47:11;23.30;;;19.55;;
34924;SDS011;21130;51.728;8.748;2024-03-02T05:49:39;23.02;;;18.98;;
34924;SDS011;21130;51.728;8.748;2024-03-02T05:52:06;23.92;;;19.20;;
34924;SDS011;21130;51.728;8.748;2024-03-02T05:54:33;25.95;;;19.90;;
34924;SDS011;21130;51.728;8.748;2024-03-02T05:56:59;25.42;;;19.00;;
34924;SDS011;21130;51.728;8.748;2024-03-02T05:59:41;25.67;;;19.77;;
34924;SDS011;21130;51.728;8.748;2024-03-02T06:02:08;25.33;;;19.38;;
34924;SDS011;21130;51.728;8.748;2024-03-02T06:04:36;26.05;;;20.55;;
34924;SDS011;21130;51.728;8.748;2024-03-02T06:07:04;24.70;;;19.50;;
34924;SDS011;21130;51.728;8.748;2024-03-02T06:09:30;27.00;;;20.30;;
34924;SDS011;21130;51.728;8.748;2024-03-02T06:11:56;26.15;;;19.90;;
34924;SDS011;21130;51.728;8.748;2024-03-02T06:14:23;25.98;;;19.50;;
34924;SDS011;21130;51.728;8.748;2024-03-02T06:16:49;25.05;;;19.55;;
34924;SDS011;21130;51.728;8.748;2024-03-02T06:19:16;23.38;;;18.75;;
34924;SDS011;21130;51.728;8.748;2024-03-02T06:21:42;27.38;;;19.58;;
34924;SDS011;21130;51.728;8.748;2024-03-02T06:24:10;26.20;;;19.23;;
34924;SDS011;21130;51.728;8.748;2024-03-02T06:26:37;27.40;;;20.30;;
34924;SDS011;21130;51.728;8.748;2024-03-02T06:29:04;24.98;;;19.00;;
34924;SDS011;21130;51.728;8.748;2024-03-02T06:31:30;24.17;;;18.45;;
34924;SDS011;21130;51.728;8.748;2024-03-02T06:33:57;25.42;;;20.38;;
34924;SDS011;21130;51.728;8.748;2024-03-02T06:36:23;24.88;;;19.35;;
34924;SDS011;21130;51.728;8.748;2024-03-02T06:38:50;26.17;;;19.88;;
34924;SDS011;21130;51.728;8.748;2024-03-02T06:41:17;24.63;;;20.23;;
34924;SDS011;21130;51.728;8.748;2024-03-02T06:43:44;26.50;;;20.40;;
34924;SDS011;21130;51.728;8.748;2024-03-02T06:46:12;25.05;;;20.02;;
34924;SDS011;21130;51.728;8.748;2024-03-02T06:48:40;25.30;;;20.52;;
34924;SDS011;21130;51.728;8.748;2024-03-02T06:51:06;29.33;;;21.05;;
34924;SDS011;21130;51.728;8.748;2024-03-02T06:53:32;25.20;;;19.48;;
34924;SDS011;21130;51.728;8.748;2024-03-02T06:55:59;25.25;;;19.40;;
34924;SDS011;21130;51.728;8.748;2024-03-02T06:58:27;25.15;;;20.08;;
34924;SDS011;21130;51.728;8.748;2024-03-02T07:00:53;25.40;;;19.52;;
34924;SDS011;21130;51.728;8.748;2024-03-02T07:03:20;24.65;;;19.60;;
34924;SDS011;21130;51.728;8.748;2024-03-02T07:05:46;25.25;;;19.92;;
34924;SDS011;21130;51.728;8.748;2024-03-02T07:08:14;26.00;;;20.65;;
34924;SDS011;21130;51.728;8.748;2024-03-02T07:10:40;22.10;;;19.33;;
34924;SDS011;21130;51.728;8.748;2024-03-02T07:13:07;24.55;;;19.38;;
34924;SDS011;21130;51.728;8.748;2024-03-02T07:15:35;25.15;;;19.73;;
34924;SDS011;21130;51.728;8.748;2024-03-02T07:18:15;25.00;;;20.05;;
34924;SDS011;21130;51.728;8.748;2024-03-02T07:20:41;27.75;;;20.40;;
34924;SDS011;21130;51.728;8.748;2024-03-02T07:23:08;23.55;;;19.13;;
34924;SDS011;21130;51.728;8.748;2024-03-02T07:25:34;26.67;;;20.05;;
34924;SDS011;21130;51.728;8.748;2024-03-02T07:28:01;26.38;;;19.50;;
34924;SDS011;21130;51.728;8.748;2024-03-02T07:30:28;24.50;;;19.38;;
34924;SDS011;21130;51.728;8.748;2024-03-02T07:32:55;25.00;;;20.00;;
34924;SDS011;21130;51.728;8.748;2024-03-02T07:35:22;25.08;;;19.38;;
34924;SDS011;21130;51.728;8.748;2024-03-02T07:37:51;24.38;;;19.65;;
34924;SDS011;21130;51.728;8.748;2024-03-02T07:40:18;24.80;;;19.05;;
34924;SDS011;21130;51.728;8.748;2024-03-02T07:42:44;24.85;;;19.23;;
34924;SDS011;21130;51.728;8.748;2024-03-02T07:45:11;24.63;;;18.92;;
34924;SDS011;21130;51.728;8.748;2024-03-02T07:47:38;26.80;;;19.95;;
34924;SDS011;21130;51.728;8.748;2024-03-02T07:50:07;25.05;;;19.10;;
34924;SDS011;21130;51.728;8.748;2024-03-02T07:52:34;26.20;;;20.25;;
34924;SDS011;21130;51.728;8.748;2024-03-02T07:55:00;25.75;;;19.80;;
34924;SDS011;21130;51.728;8.748;2024-03-02T07:57:27;26.60;;;19.67;;
34924;SDS011;21130;51.728;8.748;2024-03-02T07:59:53;23.90;;;19.15;;
34924;SDS011;21130;51.728;8.748;2024-03-02T08:02:20;23.40;;;18.50;;
34924;SDS011;21130;51.728;8.748;2024-03-02T08:04:47;26.50;;;19.17;;
34924;SDS011;21130;51.728;8.748;2024-03-02T08:07:14;22.67;;;18.23;;
34924;SDS011;21130;51.728;8.748;2024-03-02T08:09:41;22.52;;;18.42;;
34924;SDS011;21130;51.728;8.748;2024-03-02T08:12:08;24.85;;;19.42;;
34924;SDS011;21130;51.728;8.748;2024-03-02T08:14:34;23.80;;;18.48;;
34924;SDS011;21130;51.728;8.748;2024-03-02T08:17:01;22.67;;;17.30;;
34924;SDS011;21130;51.728;8.748;2024-03-02T08:19:27;24.13;;;18.55;;
34924;SDS011;21130;51.728;8.748;2024-03-02T08:21:54;21.52;;;17.65;;
34924;SDS011;21130;51.728;8.748;2024-03-02T08:24:21;23.50;;;18.63;;
34924;SDS011;21130;51.728;8.748;2024-03-02T08:26:48;22.23;;;18.38;;
34924;SDS011;21130;51.728;8.748;2024-03-02T08:29:14;23.42;;;17.60;;
34924;SDS011;21130;51.728;8.748;2024-03-02T08:31:41;22.77;;;17.58;;
34924;SDS011;21130;51.728;8.748;2024-03-02T08:34:07;22.77;;;17.85;;
34924;SDS011;21130;51.728;8.748;2024-03-02T08:36:34;19.95;;;16.20;;
34924;SDS011;21130;51.728;8.748;2024-03-02T08:39:01;21.10;;;16.40;;
34924;SDS011;21130;51.728;8.748;2024-03-02T08:41:29;21.08;;;17.02;;
34924;SDS011;21130;51.728;8.748;2024-03-02T08:43:56;20.70;;;16.73;;
34924;SDS011;21130;51.728;8.748;2024-03-02T08:46:22;18.92;;;15.63;;
34924;SDS011;21130;51.728;8.748;2024-03-02T08:48:49;18.55;;;15.77;;
34924;SDS011;21130;51.728;8.748;2024-03-02T08:51:15;21.00;;;15.95;;
34924;SDS011;21130;51.728;8.748;2024-03-02T08:53:41;17.35;;;15.23;;
34924;SDS011;21130;51.728;8.748;2024-03-02T08:56:08;17.45;;;15.10;;
34924;SDS011;21130;51.728;8.748;2024-03-02T08:58:36;18.45;;;14.10;;
34924;SDS011;21130;51.728;8.748;2024-03-02T09:01:03;17.15;;;14.60;;
34924;SDS011;21130;51.728;8.748;2024-03-02T09:03:30;17.65;;;14.75;;
34924;SDS011;21130;51.728;8.748;2024-03-02T09:05:58;17.95;;;14.40;;
34924;SDS011;21130;51.728;8.748;2024-03-02T09:08:24;17.40;;;14.48;;
34924;SDS011;21130;51.728;8.748;2024-03-02T09:11:10;17.00;;;13.82;;
34924;SDS011;21130;51.728;8.748;2024-03-02T09:13:58;15.93;;;13.30;;
34924;SDS011;21130;51.728;8.748;2024-03-02T09:16:43;15.93;;;13.05;;
34924;SDS011;21130;51.728;8.748;2024-03-02T09:19:10;14.37;;;11.50;;
34924;SDS011;21130;51.728;8.748;2024-03-02T09:21:36;15.50;;;13.32;;
34924;SDS011;21130;51.728;8.748;2024-03-02T09:24:03;14.88;;;13.02;;
34924;SDS011;21130;51.728;8.748;2024-03-02T09:26:31;14.13;;;12.23;;
34924;SDS011;21130;51.728;8.748;2024-03-02T09:28:59;14.07;;;11.50;;
34924;SDS011;21130;51.728;8.748;2024-03-02T09:31:25;13.45;;;11.43;;
34924;SDS011;21130;51.728;8.748;2024-03-02T09:33:52;12.98;;;10.70;;
34924;SDS011;21130;51.728;8.748;2024-03-02T09:36:18;14.10;;;11.73;;
34924;SDS011;21130;51.728;8.748;2024-03-02T09:38:45;12.35;;;11.10;;
34924;SDS011;21130;51.728;8.748;2024-03-02T09:41:12;11.93;;;10.45;;
34924;SDS011;21130;51.728;8.748;2024-03-02T09:43:38;12.43;;;10.52;;
34924;SDS011;21130;51.728;8.748;2024-03-02T09:46:07;11.98;;;10.35;;
34924;SDS011;21130;51.728;8.748;2024-03-02T09:48:35;11.75;;;9.70;;
34924;SDS011;21130;51.728;8.748;2024-03-02T09:51:02;10.52;;;9.48;;
34924;SDS011;21130;51.728;8.748;2024-03-02T09:53:31;12.60;;;9.60;;
34924;SDS011;21130;51.728;8.748;2024-03-02T09:55:58;11.05;;;9.45;;
34924;SDS011;21130;51.728;8.748;2024-03-02T09:58:25;10.90;;;9.35;;
34924;SDS011;21130;51.728;8.748;2024-03-02T10:00:51;12.40;;;10.07;;
34924;SDS011;21130;51.728;8.748;2024-03-02T10:03:19;10.77;;;9.65;;
34924;SDS011;21130;51.728;8.748;2024-03-02T10:05:46;11.43;;;10.02;;
34924;SDS011;21130;51.728;8.748;2024-03-02T10:08:12;11.32;;;9.23;;
34924;SDS011;21130;51.728;8.748;2024-03-02T10:10:39;12.75;;;10.05;;
34924;SDS011;21130;51.728;8.748;2024-03-02T10:13:08;10.93;;;9.48;;
34924;SDS011;21130;51.728;8.748;2024-03-02T10:15:35;11.45;;;9.07;;
34924;SDS011;21130;51.728;8.748;2024-03-02T10:18:03;10.13;;;8.80;;
34924;SDS011;21130;51.728;8.748;2024-03-02T10:20:31;10.85;;;8.88;;
34924;SDS011;21130;51.728;8.748;2024-03-02T10:23:09;10.70;;;9.30;;
34924;SDS011;21130;51.728;8.748;2024-03-02T10:25:36;10.40;;;8.80;;
34924;SDS011;21130;51.728;8.748;2024-03-02T10:28:03;10.07;;;9.05;;
34924;SDS011;21130;51.728;8.748;2024-03-02T10:30:31;9.80;;;8.50;;
34924;SDS011;21130;51.728;8.748;2024-03-02T10:32:58;10.70;;;8.20;;
34924;SDS011;21130;51.728;8.748;2024-03-02T10:35:24;12.63;;;8.65;;
34924;SDS011;21130;51.728;8.748;2024-03-02T10:37:53;10.75;;;8.05;;
34924;SDS011;21130;51.728;8.748;2024-03-02T10:40:21;10.50;;;8.75;;
34924;SDS011;21130;51.728;8.748;2024-03-02T10:42:47;8.32;;;7.53;;
34924;SDS011;21130;51.728;8.748;2024-03-02T10:45:15;14.02;;;8.15;;
34924;SDS011;21130;51.728;8.748;2024-03-02T10:47:42;10.82;;;7.38;;
34924;SDS011;21130;51.728;8.748;2024-03-02T10:53:17;8.98;;;7.25;;
34924;SDS011;21130;51.728;8.748;2024-03-02T10:55:44;10.05;;;7.57;;
34924;SDS011;21130;51.728;8.748;2024-03-02T10:58:15;16.15;;;7.45;;
34924;SDS011;21130;51.728;8.748;2024-03-02T11:00:42;8.07;;;7.25;;
34924;SDS011;21130;51.728;8.748;2024-03-02T11:03:10;7.90;;;6.97;;
34924;SDS011;21130;51.728;8.748;2024-03-02T11:05:38;6.68;;;5.97;;
34924;SDS011;21130;51.728;8.748;2024-03-02T11:08:07;7.13;;;6.38;;
34924;SDS011;21130;51.728;8.748;2024-03-02T11:10:41;7.55;;;6.65;;
34924;SDS011;21130;51.728;8.748;2024-03-02T11:13:16;6.97;;;5.90;;
34924;SDS011;21130;51.728;8.748;2024-03-02T11:15:49;8.65;;;6.18;;
34924;SDS011;21130;51.728;8.748;2024-03-02T11:18:20;6.47;;;5.70;;
34924;SDS011;21130;51.728;8.748;2024-03-02T11:20:47;7.38;;;6.25;;
34924;SDS011;21130;51.728;8.748;2024-03-02T11:23:14;8.00;;;6.57;;
34924;SDS011;21130;51.728;8.748;2024-03-02T11:25:43;9.63;;;7.63;;
34924;SDS011;21130;51.728;8.748;2024-03-02T11:28:10;10.32;;;7.60;;
34924;SDS011;21130;51.728;8.748;2024-03-02T11:30:49;7.55;;;5.97;;
34924;SDS011;21130;51.728;8.748;2024-03-02T11:33:15;6.97;;;6.28;;
34924;SDS011;21130;51.728;8.748;2024-03-02T11:35:52;6.63;;;5.80;;
34924;SDS011;21130;51.728;8.748;2024-03-02T11:38:19;7.22;;;5.88;;
34924;SDS011;21130;51.728;8.748;2024-03-02T11:40:46;8.82;;;5.47;;
34924;SDS011;21130;51.728;8.748;2024-03-02T11:43:13;6.07;;;5.47;;
34924;SDS011;21130;51.728;8.748;2024-03-02T11:45:41;6.50;;;5.75;;
34924;SDS011;21130;51.728;8.748;2024-03-02T11:48:09;6.15;;;5.55;;
34924;SDS011;21130;51.728;8.748;2024-03-02T11:50:40;5.95;;;5.35;;
34924;SDS011;21130;51.728;8.748;2024-03-02T11:53:07;6.35;;;5.32;;
34924;SDS011;21130;51.728;8.748;2024-03-02T11:55:35;6.55;;;5.65;;
34924;SDS011;21130;51.728;8.748;2024-03-02T11:58:04;5.63;;;4.63;;
34924;SDS011;21130;51.728;8.748;2024-03-02T12:00:31;5.05;;;4.55;;
34924;SDS011;21130;51.728;8.748;2024-03-02T12:02:59;6.22;;;4.95;;
34924;SDS011;21130;51.728;8.748;2024-03-02T12:05:27;6.22;;;4.22;;
34924;SDS011;21130;51.728;8.748;2024-03-02T12:07:55;5.00;;;4.50;;
34924;SDS011;21130;51.728;8.748;2024-03-02T12:10:22;5.07;;;4.10;;
34924;SDS011;21130;51.728;8.748;2024-03-02T12:12:54;4.53;;;3.92;;
34924;SDS011;21130;51.728;8.748;2024-03-02T12:15:24;4.80;;;4.40;;
34924;SDS011;21130;51.728;8.748;2024-03-02T12:17:55;4.13;;;3.72;;
34924;SDS011;21130;51.728;8.748;2024-03-02T12:20:22;3.88;;;3.45;;
34924;SDS011;21130;51.728;8.748;2024-03-02T12:23:09;4.30;;;3.55;;
34924;SDS011;21130;51.728;8.748;2024-03-02T12:25:53;3.83;;;3.15;;
34924;SDS011;21130;51.728;8.748;2024-03-02T12:28:22;4.00;;;3.60;;
34924;SDS011;21130;51.728;8.748;2024-03-02T12:30:50;4.82;;;4.03;;
34924;SDS011;21130;51.728;8.748;2024-03-02T12:33:17;4.70;;;4.22;;
34924;SDS011;21130;51.728;8.748;2024-03-02T12:35:43;5.05;;;4.30;;
34924;SDS011;21130;51.728;8.748;2024-03-02T12:38:10;4.20;;;3.70;;
34924;SDS011;21130;51.728;8.748;2024-03-02T12:40:37;4.70;;;3.80;;
34924;SDS011;21130;51.728;8.748;2024-03-02T12:43:04;4.03;;;3.63;;
34924;SDS011;21130;51.728;8.748;2024-03-02T12:45:52;3.53;;;3.22;;
34924;SDS011;21130;51.728;8.748;2024-03-02T12:48:41;4.60;;;3.83;;
34924;SDS011;21130;51.728;8.748;2024-03-02T12:51:29;4.38;;;3.60;;
34924;SDS011;21130;51.728;8.748;2024-03-02T12:53:56;6.97;;;4.38;;
34924;SDS011;21130;51.728;8.748;2024-03-02T12:56:23;4.25;;;3.60;;
34924;SDS011;21130;51.728;8.748;2024-03-02T12:58:52;5.00;;;3.67;;
34924;SDS011;21130;51.728;8.748;2024-03-02T13:01:21;4.40;;;3.50;;
34924;SDS011;21130;51.728;8.748;2024-03-02T13:03:48;4.50;;;3.63;;
34924;SDS011;21130;51.728;8.748;2024-03-02T13:06:16;4.00;;;3.60;;
34924;SDS011;21130;51.728;8.748;2024-03-02T13:08:42;4.15;;;3.15;;
34924;SDS011;21130;51.728;8.748;2024-03-02T13:11:10;3.50;;;3.03;;
34924;SDS011;21130;51.728;8.748;2024-03-02T13:13:38;3.60;;;3.25;;
34924;SDS011;21130;51.728;8.748;2024-03-02T13:16:07;3.45;;;3.15;;
34924;SDS011;21130;51.728;8.748;2024-03-02T13:18:35;2.80;;;2.60;;
34924;SDS011;21130;51.728;8.748;2024-03-02T13:21:02;4.03;;;3.30;;
34924;SDS011;21130;51.728;8.748;2024-03-02T13:23:29;3.90;;;3.00;;
34924;SDS011;21130;51.728;8.748;2024-03-02T13:25:56;3.35;;;2.83;;
34924;SDS011;21130;51.728;8.748;2024-03-02T13:28:23;3.20;;;2.90;;
34924;SDS011;21130;51.728;8.748;2024-03-02T13:30:50;4.22;;;2.50;;
34924;SDS011;21130;51.728;8.748;2024-03-02T13:33:16;3.15;;;2.53;;
34924;SDS011;21130;51.728;8.748;2024-03-02T13:35:48;2.75;;;2.47;;
34924;SDS011;21130;51.728;8.748;2024-03-02T13:38:15;3.15;;;2.85;;
34924;SDS011;21130;51.728;8.748;2024-03-02T13:40:42;2.95;;;2.42;;
34924;SDS011;21130;51.728;8.748;2024-03-02T13:43:08;4.10;;;2.45;;
34924;SDS011;21130;51.728;8.748;2024-03-02T13:45:35;2.40;;;2.20;;
34924;SDS011;21130;51.728;8.748;2024-03-02T13:48:02;2.25;;;2.03;;
34924;SDS011;21130;51.728;8.748;2024-03-02T13:50:29;2.00;;;1.90;;
34924;SDS011;21130;51.728;8.748;2024-03-02T13:52:57;4.72;;;2.15;;
34924;SDS011;21130;51.728;8.748;2024-03-02T13:55:24;2.70;;;2.10;;
34924;SDS011;21130;51.728;8.748;2024-03-02T13:57:50;2.50;;;2.28;;
34924;SDS011;21130;51.728;8.748;2024-03-02T14:00:17;2.45;;;2.05;;
34924;SDS011;21130;51.728;8.748;2024-03-02T14:02:45;2.63;;;1.88;;
34924;SDS011;21130;51.728;8.748;2024-03-02T14:05:11;2.38;;;1.92;;
34924;SDS011;21130;51.728;8.748;2024-03-02T14:07:39;2.47;;;2.28;;
34924;SDS011;21130;51.728;8.748;2024-03-02T14:10:08;4.75;;;2.17;;
34924;SDS011;21130;51.728;8.748;2024-03-02T14:12:35;2.40;;;2.20;;
34924;SDS011;21130;51.728;8.748;2024-03-02T14:15:02;2.60;;;2.40;;
34924;SDS011;21130;51.728;8.748;2024-03-02T14:17:29;2.67;;;2.47;;
34924;SDS011;21130;51.728;8.748;2024-03-02T14:19:56;3.35;;;2.30;;
34924;SDS011;21130;51.728;8.748;2024-03-02T14:22:24;2.00;;;1.80;;
34924;SDS011;21130;51.728;8.748;2024-03-02T14:24:50;2.22;;;2.03;;
34924;SDS011;21130;51.728;8.748;2024-03-02T14:27:38;2.78;;;2.10;;
34924;SDS011;21130;51.728;8.748;2024-03-02T14:30:06;2.33;;;2.13;;
34924;SDS011;21130;51.728;8.748;2024-03-02T14:32:34;2.30;;;2.10;;
34924;SDS011;21130;51.728;8.748;2024-03-02T14:35:00;1.92;;;1.60;;
34924;SDS011;21130;51.728;8.748;2024-03-02T14:37:27;2.88;;;1.95;;
34924;SDS011;21130;51.728;8.748;2024-03-02T14:39:53;2.50;;;2.20;;
34924;SDS011;21130;51.728;8.748;2024-03-02T14:42:20;2.60;;;2.17;;
34924;SDS011;21130;51.728;8.748;2024-03-02T14:44:48;2.67;;;2.15;;
34924;SDS011;21130;51.728;8.748;2024-03-02T14:47:15;2.20;;;1.90;;
34924;SDS011;21130;51.728;8.748;2024-03-02T14:49:42;2.20;;;1.92;;
34924;SDS011;21130;51.728;8.748;2024-03-02T14:52:09;3.75;;;2.33;;
34924;SDS011;21130;51.728;8.748;2024-03-02T14:54:36;2.35;;;1.95;;
34924;SDS011;21130;51.728;8.748;2024-03-02T14:57:03;2.85;;;2.22;;
34924;SDS011;21130;51.728;8.748;2024-03-02T14:59:30;2.50;;;2.30;;
34924;SDS011;21130;51.728;8.748;2024-03-02T15:01:57;2.58;;;2.13;;